Terminal Aerodrome Forecast
Issued by NWS

Home | Current Version | Previous Version | Text Only | Print | Product List | Glossary On
Versions: 1 2 3 4 5 6 7 8 9 10 11 12
000
FTAK31 PAJN 051100
TAFAKT
TAF
PAKT 051120Z 0512/0612 32008KT P6SM SCT200
     FM051600 34011KT P6SM SCT200
     FM060000 32006KT P6SM SCT200
      AMD LTD TO CLD VIS AND WIND 0512/0515=

USA.gov is the U.S. government's official web portal to all federal, state and local government web resources and services.